sensor_id;sensor_type;location;lat;lon;timestamp;pressure;altitude;pressure_sealevel;temperature;humidity
22580;BME280;11456;47.030;15.396;2024-02-04T00:00:15;98116.41;;;2.41;100.00
22580;BME280;11456;47.030;15.396;2024-02-04T00:02:42;98110.59;;;2.35;100.00
22580;BME280;11456;47.030;15.396;2024-02-04T00:05:09;98104.47;;;2.63;100.00
22580;BME280;11456;47.030;15.396;2024-02-04T00:07:35;98092.66;;;2.68;100.00
22580;BME280;11456;47.030;15.396;2024-02-04T00:10:02;98086.09;;;2.74;100.00
22580;BME280;11456;47.030;15.396;2024-02-04T00:12:30;98089.91;;;2.98;100.00
22580;BME280;11456;47.030;15.396;2024-02-04T00:14:56;98081.50;;;2.76;100.00
22580;BME280;11456;47.030;15.396;2024-02-04T00:17:23;98082.31;;;2.34;100.00
22580;BME280;11456;47.030;15.396;2024-02-04T00:19:56;98080.16;;;2.40;100.00
22580;BME280;11456;47.030;15.396;2024-02-04T00:22:23;98078.50;;;2.68;100.00
22580;BME280;11456;47.030;15.396;2024-02-04T00:24:49;98070.81;;;2.33;100.00
22580;BME280;11456;47.030;15.396;2024-02-04T00:27:16;98078.59;;;2.22;100.00
22580;BME280;11456;47.030;15.396;2024-02-04T00:29:43;98087.91;;;2.43;100.00
22580;BME280;11456;47.030;15.396;2024-02-04T00:32:09;98087.00;;;2.59;100.00
22580;BME280;11456;47.030;15.396;2024-02-04T00:34:36;98077.00;;;2.34;100.00
22580;BME280;11456;47.030;15.396;2024-02-04T00:37:03;98082.47;;;2.31;100.00
22580;BME280;11456;47.030;15.396;2024-02-04T00:39:30;98082.31;;;2.34;100.00
22580;BME280;11456;47.030;15.396;2024-02-04T00:41:57;98083.84;;;2.08;100.00
22580;BME280;11456;47.030;15.396;2024-02-04T00:44:23;98075.34;;;2.17;100.00
22580;BME280;11456;47.030;15.396;2024-02-04T00:46:50;98071.03;;;2.30;100.00
22580;BME280;11456;47.030;15.396;2024-02-04T00:49:17;98079.00;;;2.30;100.00
22580;BME280;11456;47.030;15.396;2024-02-04T00:51:44;98085.25;;;2.29;100.00
22580;BME280;11456;47.030;15.396;2024-02-04T00:54:10;98078.13;;;2.00;100.00
22580;BME280;11456;47.030;15.396;2024-02-04T00:56:37;98059.00;;;2.09;100.00
22580;BME280;11456;47.030;15.396;2024-02-04T00:59:04;98062.59;;;2.08;100.00
22580;BME280;11456;47.030;15.396;2024-02-04T01:01:31;98067.69;;;1.97;100.00
22580;BME280;11456;47.030;15.396;2024-02-04T01:03:58;98053.81;;;1.92;100.00
22580;BME280;11456;47.030;15.396;2024-02-04T01:06:25;98068.56;;;1.82;100.00
22580;BME280;11456;47.030;15.396;2024-02-04T01:08:52;98067.03;;;1.78;100.00
22580;BME280;11456;47.030;15.396;2024-02-04T01:11:19;98061.31;;;1.70;100.00
22580;BME280;11456;47.030;15.396;2024-02-04T01:13:45;98063.25;;;1.82;100.00
22580;BME280;11456;47.030;15.396;2024-02-04T01:16:12;98065.38;;;1.91;100.00
22580;BME280;11456;47.030;15.396;2024-02-04T01:18:39;98064.84;;;2.00;100.00
22580;BME280;11456;47.030;15.396;2024-02-04T01:21:06;98078.25;;;1.83;100.00
22580;BME280;11456;47.030;15.396;2024-02-04T01:23:33;98075.94;;;1.77;100.00
22580;BME280;11456;47.030;15.396;2024-02-04T01:26:00;98066.63;;;1.99;100.00
22580;BME280;11456;47.030;15.396;2024-02-04T01:28:27;98075.91;;;1.92;100.00
22580;BME280;11456;47.030;15.396;2024-02-04T01:30:53;98075.53;;;1.98;100.00
22580;BME280;11456;47.030;15.396;2024-02-04T01:33:20;98077.66;;;1.78;100.00
22580;BME280;11456;47.030;15.396;2024-02-04T01:35:47;98075.94;;;1.77;100.00
22580;BME280;11456;47.030;15.396;2024-02-04T01:38:14;98073.53;;;1.88;100.00
22580;BME280;11456;47.030;15.396;2024-02-04T01:40:41;98086.06;;;1.70;100.00
22580;BME280;11456;47.030;15.396;2024-02-04T01:43:07;98083.56;;;1.83;100.00
22580;BME280;11456;47.030;15.396;2024-02-04T01:45:34;98084.69;;;1.79;100.00
22580;BME280;11456;47.030;15.396;2024-02-04T01:48:01;98083.44;;;2.00;100.00
22580;BME280;11456;47.030;15.396;2024-02-04T01:50:28;98081.34;;;2.05;100.00
22580;BME280;11456;47.030;15.396;2024-02-04T01:52:55;98084.22;;;2.02;100.00
22580;BME280;11456;47.030;15.396;2024-02-04T01:55:22;98079.06;;;3.01;100.00
22580;BME280;11456;47.030;15.396;2024-02-04T01:57:49;98061.91;;;4.01;100.00
22580;BME280;11456;47.030;15.396;2024-02-04T02:00:18;98062.50;;;2.54;100.00
22580;BME280;11456;47.030;15.396;2024-02-04T02:02:48;98079.13;;;2.13;100.00
22580;BME280;11456;47.030;15.396;2024-02-04T02:05:15;98068.34;;;2.00;100.00
22580;BME280;11456;47.030;15.396;2024-02-04T02:07:42;98074.00;;;2.10;100.00
22580;BME280;11456;47.030;15.396;2024-02-04T02:10:12;98061.38;;;1.84;100.00
22580;BME280;11456;47.030;15.396;2024-02-04T02:12:50;98054.56;;;1.64;100.00
22580;BME280;11456;47.030;15.396;2024-02-04T02:15:21;98043.38;;;1.89;100.00
22580;BME280;11456;47.030;15.396;2024-02-04T02:22:56;98041.00;;;1.84;100.00
22580;BME280;11456;47.030;15.396;2024-02-04T02:25:27;98049.09;;;1.97;100.00
22580;BME280;11456;47.030;15.396;2024-02-04T02:27:54;98056.78;;;1.72;100.00
22580;BME280;11456;47.030;15.396;2024-02-04T02:30:21;98053.47;;;2.12;100.00
22580;BME280;11456;47.030;15.396;2024-02-04T02:32:49;98057.06;;;1.97;100.00
22580;BME280;11456;47.030;15.396;2024-02-04T02:35:17;98054.16;;;1.86;100.00
22580;BME280;11456;47.030;15.396;2024-02-04T02:37:56;98046.97;;;1.88;100.00
22580;BME280;11456;47.030;15.396;2024-02-04T02:40:28;98052.91;;;1.77;100.00
22580;BME280;11456;47.030;15.396;2024-02-04T02:42:57;98057.16;;;1.34;100.00
22580;BME280;11456;47.030;15.396;2024-02-04T02:45:26;98056.16;;;1.67;100.00
22580;BME280;11456;47.030;15.396;2024-02-04T02:47:54;98040.84;;;1.72;100.00
22580;BME280;11456;47.030;15.396;2024-02-04T02:50:21;98030.38;;;1.98;100.00
22580;BME280;11456;47.030;15.396;2024-02-04T02:52:48;98041.13;;;1.97;100.00
22580;BME280;11456;47.030;15.396;2024-02-04T02:55:15;98051.97;;;1.78;100.00
22580;BME280;11456;47.030;15.396;2024-02-04T02:57:42;98043.06;;;1.48;100.00
22580;BME280;11456;47.030;15.396;2024-02-04T03:00:09;98044.72;;;1.96;100.00
22580;BME280;11456;47.030;15.396;2024-02-04T03:02:35;98030.19;;;2.31;100.00
22580;BME280;11456;47.030;15.396;2024-02-04T03:05:02;98057.94;;;1.82;100.00
22580;BME280;11456;47.030;15.396;2024-02-04T03:07:29;98054.63;;;1.78;100.00
22580;BME280;11456;47.030;15.396;2024-02-04T03:09:56;98051.34;;;1.89;100.00
22580;BME280;11456;47.030;15.396;2024-02-04T03:12:22;98056.81;;;1.40;100.00
22580;BME280;11456;47.030;15.396;2024-02-04T03:14:50;98045.50;;;1.52;100.00
22580;BME280;11456;47.030;15.396;2024-02-04T03:17:16;98046.69;;;1.47;100.00
22580;BME280;11456;47.030;15.396;2024-02-04T03:19:48;98041.91;;;1.53;100.00
22580;BME280;11456;47.030;15.396;2024-02-04T03:22:15;98052.84;;;1.47;100.00
22580;BME280;11456;47.030;15.396;2024-02-04T03:24:42;98064.00;;;1.38;100.00
22580;BME280;11456;47.030;15.396;2024-02-04T03:27:09;98053.69;;;1.64;100.00
22580;BME280;11456;47.030;15.396;2024-02-04T03:29:36;98042.50;;;1.58;100.00
22580;BME280;11456;47.030;15.396;2024-02-04T03:32:03;98028.88;;;1.65;100.00
22580;BME280;11456;47.030;15.396;2024-02-04T03:34:30;98025.00;;;1.70;100.00
22580;BME280;11456;47.030;15.396;2024-02-04T03:36:57;98024.19;;;1.84;100.00
22580;BME280;11456;47.030;15.396;2024-02-04T03:39:24;98009.72;;;2.48;100.00
22580;BME280;11456;47.030;15.396;2024-02-04T03:41:52;98010.50;;;1.76;100.00
22580;BME280;11456;47.030;15.396;2024-02-04T03:44:19;98018.25;;;1.49;100.00
22580;BME280;11456;47.030;15.396;2024-02-04T03:46:49;98000.31;;;2.70;100.00
22580;BME280;11456;47.030;15.396;2024-02-04T03:49:17;97997.59;;;2.14;100.00
22580;BME280;11456;47.030;15.396;2024-02-04T03:51:44;98005.59;;;1.38;100.00
22580;BME280;11456;47.030;15.396;2024-02-04T03:54:11;98009.03;;;1.40;100.00
22580;BME280;11456;47.030;15.396;2024-02-04T03:56:38;98005.91;;;1.64;100.00
22580;BME280;11456;47.030;15.396;2024-02-04T03:59:05;98013.28;;;1.58;100.00
22580;BME280;11456;47.030;15.396;2024-02-04T04:01:33;98011.94;;;2.11;100.00
22580;BME280;11456;47.030;15.396;2024-02-04T04:04:01;98018.47;;;2.50;100.00
22580;BME280;11456;47.030;15.396;2024-02-04T04:06:28;98029.31;;;1.87;100.00
22580;BME280;11456;47.030;15.396;2024-02-04T04:08:55;98020.31;;;1.59;100.00
22580;BME280;11456;47.030;15.396;2024-02-04T04:11:26;98024.13;;;1.99;100.00
22580;BME280;11456;47.030;15.396;2024-02-04T04:13:52;98016.03;;;1.57;100.00
22580;BME280;11456;47.030;15.396;2024-02-04T04:16:22;98028.31;;;2.33;100.00
22580;BME280;11456;47.030;15.396;2024-02-04T04:18:49;98030.38;;;1.84;100.00
22580;BME280;11456;47.030;15.396;2024-02-04T04:21:16;98039.78;;;1.74;100.00
22580;BME280;11456;47.030;15.396;2024-02-04T04:23:43;98044.94;;;1.61;100.00
22580;BME280;11456;47.030;15.396;2024-02-04T04:26:10;98049.44;;;1.91;100.00
22580;BME280;11456;47.030;15.396;2024-02-04T04:28:37;98051.38;;;2.03;100.00
22580;BME280;11456;47.030;15.396;2024-02-04T04:31:04;98058.94;;;1.95;100.00
22580;BME280;11456;47.030;15.396;2024-02-04T04:33:31;98043.50;;;2.46;100.00
22580;BME280;11456;47.030;15.396;2024-02-04T04:35:58;98043.53;;;2.60;100.00
22580;BME280;11456;47.030;15.396;2024-02-04T04:38:25;98037.22;;;2.32;100.00
22580;BME280;11456;47.030;15.396;2024-02-04T04:40:51;98047.50;;;2.53;100.00
22580;BME280;11456;47.030;15.396;2024-02-04T04:43:18;98033.28;;;2.68;100.00
22580;BME280;11456;47.030;15.396;2024-02-04T04:45:45;98030.97;;;2.48;100.00
22580;BME280;11456;47.030;15.396;2024-02-04T04:48:11;98029.16;;;3.19;100.00
22580;BME280;11456;47.030;15.396;2024-02-04T04:50:38;98020.47;;;3.44;100.00
22580;BME280;11456;47.030;15.396;2024-02-04T04:53:05;98013.91;;;2.94;100.00
22580;BME280;11456;47.030;15.396;2024-02-04T04:55:31;98027.75;;;2.71;100.00
22580;BME280;11456;47.030;15.396;2024-02-04T04:57:58;98025.09;;;2.57;100.00
22580;BME280;11456;47.030;15.396;2024-02-04T05:00:25;98021.97;;;2.93;100.00
22580;BME280;11456;47.030;15.396;2024-02-04T05:02:52;98025.47;;;2.65;100.00
22580;BME280;11456;47.030;15.396;2024-02-04T05:05:19;98034.97;;;2.55;100.00
22580;BME280;11456;47.030;15.396;2024-02-04T05:07:45;98041.63;;;2.48;100.00
22580;BME280;11456;47.030;15.396;2024-02-04T05:10:13;98040.81;;;2.31;100.00
22580;BME280;11456;47.030;15.396;2024-02-04T05:12:40;98045.75;;;2.37;100.00
22580;BME280;11456;47.030;15.396;2024-02-04T05:15:07;98058.41;;;2.34;100.00
22580;BME280;11456;47.030;15.396;2024-02-04T05:17:34;98054.50;;;2.39;100.00
22580;BME280;11456;47.030;15.396;2024-02-04T05:20:02;98065.72;;;2.45;100.00
22580;BME280;11456;47.030;15.396;2024-02-04T05:22:31;98066.59;;;2.59;100.00
22580;BME280;11456;47.030;15.396;2024-02-04T05:24:58;98068.13;;;2.19;100.00
22580;BME280;11456;47.030;15.396;2024-02-04T05:27:25;98062.94;;;2.32;100.00
22580;BME280;11456;47.030;15.396;2024-02-04T05:29:52;98068.16;;;2.33;100.00
22580;BME280;11456;47.030;15.396;2024-02-04T05:32:19;98053.91;;;2.20;100.00
22580;BME280;11456;47.030;15.396;2024-02-04T05:34:46;98056.22;;;1.81;100.00
22580;BME280;11456;47.030;15.396;2024-02-04T05:37:13;98048.16;;;1.98;100.00
22580;BME280;11456;47.030;15.396;2024-02-04T05:39:39;98042.34;;;1.91;100.00
22580;BME280;11456;47.030;15.396;2024-02-04T05:42:06;98047.84;;;2.32;100.00
22580;BME280;11456;47.030;15.396;2024-02-04T05:44:33;98042.53;;;2.32;100.00
22580;BME280;11456;47.030;15.396;2024-02-04T05:46:59;98046.16;;;2.01;100.00
22580;BME280;11456;47.030;15.396;2024-02-04T05:49:26;98058.41;;;2.04;100.00
22580;BME280;11456;47.030;15.396;2024-02-04T05:51:53;98061.22;;;2.17;100.00
22580;BME280;11456;47.030;15.396;2024-02-04T05:54:20;98053.09;;;2.04;100.00
22580;BME280;11456;47.030;15.396;2024-02-04T05:56:46;98061.38;;;2.14;100.00
22580;BME280;11456;47.030;15.396;2024-02-04T05:59:13;98068.75;;;2.09;100.00
22580;BME280;11456;47.030;15.396;2024-02-04T06:01:40;98061.31;;;1.99;100.00
22580;BME280;11456;47.030;15.396;2024-02-04T06:04:07;98066.75;;;1.98;100.00
22580;BME280;11456;47.030;15.396;2024-02-04T06:06:33;98059.72;;;1.97;100.00
22580;BME280;11456;47.030;15.396;2024-02-04T06:09:00;98053.09;;;2.04;100.00
22580;BME280;11456;47.030;15.396;2024-02-04T06:11:27;98061.91;;;2.34;100.00
22580;BME280;11456;47.030;15.396;2024-02-04T06:13:54;98077.94;;;2.03;100.00
22580;BME280;11456;47.030;15.396;2024-02-04T06:16:20;98073.41;;;2.35;100.00
22580;BME280;11456;47.030;15.396;2024-02-04T06:18:47;98062.31;;;2.57;100.00
22580;BME280;11456;47.030;15.396;2024-02-04T06:21:15;98080.06;;;2.42;100.00
22580;BME280;11456;47.030;15.396;2024-02-04T06:23:42;98080.19;;;2.55;100.00
22580;BME280;11456;47.030;15.396;2024-02-04T06:26:08;98058.53;;;2.89;100.00
22580;BME280;11456;47.030;15.396;2024-02-04T06:28:35;98061.25;;;3.30;100.00
22580;BME280;11456;47.030;15.396;2024-02-04T06:31:02;98073.72;;;3.01;100.00
22580;BME280;11456;47.030;15.396;2024-02-04T06:33:29;98075.63;;;2.71;100.00
22580;BME280;11456;47.030;15.396;2024-02-04T06:35:55;98092.41;;;2.57;100.00
22580;BME280;11456;47.030;15.396;2024-02-04T06:38:22;98099.91;;;2.51;100.00
22580;BME280;11456;47.030;15.396;2024-02-04T06:40:49;98095.97;;;2.72;100.00
22580;BME280;11456;47.030;15.396;2024-02-04T06:43:16;98100.91;;;2.78;100.00
22580;BME280;11456;47.030;15.396;2024-02-04T06:45:42;98109.78;;;3.07;100.00
22580;BME280;11456;47.030;15.396;2024-02-04T06:48:09;98112.91;;;2.99;100.00
22580;BME280;11456;47.030;15.396;2024-02-04T06:50:36;98123.88;;;2.65;100.00
22580;BME280;11456;47.030;15.396;2024-02-04T06:53:04;98133.78;;;3.34;100.00
22580;BME280;11456;47.030;15.396;2024-02-04T06:55:30;98119.41;;;4.45;100.00
22580;BME280;11456;47.030;15.396;2024-02-04T06:57:57;98116.34;;;4.76;100.00
22580;BME280;11456;47.030;15.396;2024-02-04T07:00:24;98126.06;;;4.77;100.00
22580;BME280;11456;47.030;15.396;2024-02-04T07:02:50;98110.06;;;4.77;100.00
22580;BME280;11456;47.030;15.396;2024-02-04T07:05:17;98113.91;;;5.24;100.00
22580;BME280;11456;47.030;15.396;2024-02-04T07:07:44;98131.84;;;4.84;100.00
22580;BME280;11456;47.030;15.396;2024-02-04T07:10:11;98143.94;;;4.50;100.00
22580;BME280;11456;47.030;15.396;2024-02-04T07:12:38;98147.16;;;4.55;100.00
22580;BME280;11456;47.030;15.396;2024-02-04T07:15:05;98144.47;;;4.55;100.00
22580;BME280;11456;47.030;15.396;2024-02-04T07:17:31;98132.88;;;3.90;100.00
22580;BME280;11456;47.030;15.396;2024-02-04T07:19:58;98116.44;;;3.69;100.00
22580;BME280;11456;47.030;15.396;2024-02-04T07:22:25;98123.94;;;3.77;100.00
22580;BME280;11456;47.030;15.396;2024-02-04T07:24:52;98125.94;;;4.14;100.00
22580;BME280;11456;47.030;15.396;2024-02-04T07:27:19;98135.00;;;4.51;100.00
22580;BME280;11456;47.030;15.396;2024-02-04T07:29:46;98127.88;;;4.64;100.00
22580;BME280;11456;47.030;15.396;2024-02-04T07:32:16;98130.94;;;4.58;100.00
22580;BME280;11456;47.030;15.396;2024-02-04T07:34:42;98113.09;;;4.07;100.00
22580;BME280;11456;47.030;15.396;2024-02-04T07:37:09;98112.41;;;3.90;100.00
22580;BME280;11456;47.030;15.396;2024-02-04T07:39:36;98111.72;;;3.87;100.00
22580;BME280;11456;47.030;15.396;2024-02-04T07:42:03;98123.22;;;4.28;100.00
22580;BME280;11456;47.030;15.396;2024-02-04T07:44:30;98130.81;;;4.47;100.00
22580;BME280;11456;47.030;15.396;2024-02-04T07:46:56;98132.91;;;4.81;100.00
22580;BME280;11456;47.030;15.396;2024-02-04T07:49:23;98115.88;;;6.31;100.00
22580;BME280;11456;47.030;15.396;2024-02-04T07:51:50;98123.31;;;4.79;100.00
22580;BME280;11456;47.030;15.396;2024-02-04T07:54:17;98138.00;;;4.59;100.00
22580;BME280;11456;47.030;15.396;2024-02-04T07:56:43;98143.78;;;4.78;100.00
22580;BME280;11456;47.030;15.396;2024-02-04T07:59:10;98136.97;;;5.00;100.00
22580;BME280;11456;47.030;15.396;2024-02-04T08:01:37;98125.97;;;5.30;100.00
22580;BME280;11456;47.030;15.396;2024-02-04T08:04:04;98135.69;;;5.31;100.00
22580;BME280;11456;47.030;15.396;2024-02-04T08:06:32;98125.03;;;5.18;100.00
22580;BME280;11456;47.030;15.396;2024-02-04T08:09:01;98119.03;;;5.27;100.00
22580;BME280;11456;47.030;15.396;2024-02-04T08:11:28;98102.38;;;5.36;100.00
22580;BME280;11456;47.030;15.396;2024-02-04T08:13:55;98091.00;;;5.45;100.00
22580;BME280;11456;47.030;15.396;2024-02-04T08:16:22;98109.81;;;5.56;100.00
22580;BME280;11456;47.030;15.396;2024-02-04T08:18:49;98110.59;;;5.95;100.00
22580;BME280;11456;47.030;15.396;2024-02-04T08:21:16;98110.53;;;6.08;100.00
22580;BME280;11456;47.030;15.396;2024-02-04T08:23:44;98111.25;;;6.10;100.00
22580;BME280;11456;47.030;15.396;2024-02-04T08:26:11;98105.63;;;6.25;100.00
22580;BME280;11456;47.030;15.396;2024-02-04T08:28:38;98109.34;;;6.70;100.00
22580;BME280;11456;47.030;15.396;2024-02-04T08:31:04;98106.69;;;6.47;100.00
22580;BME280;11456;47.030;15.396;2024-02-04T08:33:32;98115.44;;;6.49;100.00
22580;BME280;11456;47.030;15.396;2024-02-04T08:35:59;98112.03;;;6.47;100.00
22580;BME280;11456;47.030;15.396;2024-02-04T08:38:26;98112.41;;;6.77;100.00
22580;BME280;11456;47.030;15.396;2024-02-04T08:40:53;98102.78;;;6.85;100.00
22580;BME280;11456;47.030;15.396;2024-02-04T08:43:19;98109.16;;;6.61;100.00
22580;BME280;11456;47.030;15.396;2024-02-04T08:45:46;98095.00;;;5.89;100.00
22580;BME280;11456;47.030;15.396;2024-02-04T08:48:13;98095.06;;;6.59;100.00
22580;BME280;11456;47.030;15.396;2024-02-04T08:50:40;98104.56;;;6.63;100.00
22580;BME280;11456;47.030;15.396;2024-02-04T08:53:07;98103.09;;;7.60;100.00
22580;BME280;11456;47.030;15.396;2024-02-04T08:55:33;98115.53;;;8.38;100.00
22580;BME280;11456;47.030;15.396;2024-02-04T08:58:00;98119.31;;;8.67;100.00
22580;BME280;11456;47.030;15.396;2024-02-04T09:00:27;98122.72;;;8.69;100.00
22580;BME280;11456;47.030;15.396;2024-02-04T09:02:54;98130.91;;;9.60;95.58
22580;BME280;11456;47.030;15.396;2024-02-04T09:05:21;98132.16;;;8.84;98.49
22580;BME280;11456;47.030;15.396;2024-02-04T09:07:48;98121.94;;;9.20;94.76
22580;BME280;11456;47.030;15.396;2024-02-04T09:10:14;98129.44;;;8.96;99.64
22580;BME280;11456;47.030;15.396;2024-02-04T09:12:41;98104.25;;;9.88;92.66
22580;BME280;11456;47.030;15.396;2024-02-04T09:15:08;98095.25;;;9.58;96.02
22580;BME280;11456;47.030;15.396;2024-02-04T09:17:35;98097.84;;;9.39;94.83
22580;BME280;11456;47.030;15.396;2024-02-04T09:20:02;98107.56;;;10.01;98.78
22580;BME280;11456;47.030;15.396;2024-02-04T09:22:29;98103.69;;;9.44;95.08
22580;BME280;11456;47.030;15.396;2024-02-04T09:24:56;98095.19;;;10.58;91.64
22580;BME280;11456;47.030;15.396;2024-02-04T09:27:23;98091.53;;;12.71;76.38
22580;BME280;11456;47.030;15.396;2024-02-04T09:29:50;98084.09;;;11.92;78.78
22580;BME280;11456;47.030;15.396;2024-02-04T09:32:16;98087.81;;;10.79;82.62
22580;BME280;11456;47.030;15.396;2024-02-04T09:34:45;98074.00;;;12.22;77.22
22580;BME280;11456;47.030;15.396;2024-02-04T09:37:12;98081.06;;;11.68;75.33
22580;BME280;11456;47.030;15.396;2024-02-04T09:39:39;98079.78;;;13.06;68.69
22580;BME280;11456;47.030;15.396;2024-02-04T09:42:06;98084.34;;;12.79;66.63
22580;BME280;11456;47.030;15.396;2024-02-04T09:44:33;98071.78;;;13.40;63.71
22580;BME280;11456;47.030;15.396;2024-02-04T09:47:02;98083.78;;;14.05;60.02
22580;BME280;11456;47.030;15.396;2024-02-04T09:49:30;98086.16;;;14.00;65.14
22580;BME280;11456;47.030;15.396;2024-02-04T09:51:59;98069.41;;;14.71;57.68
22580;BME280;11456;47.030;15.396;2024-02-04T09:54:34;98072.47;;;15.08;54.15
22580;BME280;11456;47.030;15.396;2024-02-04T09:57:02;98073.63;;;15.38;52.38
22580;BME280;11456;47.030;15.396;2024-02-04T09:59:30;98075.63;;;16.08;50.88
22580;BME280;11456;47.030;15.396;2024-02-04T10:01:58;98063.22;;;16.75;50.14
22580;BME280;11456;47.030;15.396;2024-02-04T10:04:25;98073.97;;;17.14;47.42
22580;BME280;11456;47.030;15.396;2024-02-04T10:06:52;98075.28;;;17.70;46.14
22580;BME280;11456;47.030;15.396;2024-02-04T10:09:19;98075.38;;;18.06;44.18
22580;BME280;11456;47.030;15.396;2024-02-04T10:11:46;98067.41;;;17.90;44.86
22580;BME280;11456;47.030;15.396;2024-02-04T10:14:13;98072.91;;;18.55;42.80
22580;BME280;11456;47.030;15.396;2024-02-04T10:16:43;98072.53;;;17.55;42.26
22580;BME280;11456;47.030;15.396;2024-02-04T10:19:11;98067.69;;;17.66;42.43
22580;BME280;11456;47.030;15.396;2024-02-04T10:21:38;98057.63;;;17.14;42.91
22580;BME280;11456;47.030;15.396;2024-02-04T10:24:06;98053.72;;;16.40;44.13
22580;BME280;11456;47.030;15.396;2024-02-04T10:26:33;98044.16;;;16.98;42.89
22580;BME280;11456;47.030;15.396;2024-02-04T10:29:04;98054.63;;;17.61;41.67
22580;BME280;11456;47.030;15.396;2024-02-04T10:31:31;98038.91;;;16.73;41.11
22580;BME280;11456;47.030;15.396;2024-02-04T10:33:57;98032.59;;;16.50;42.38
22580;BME280;11456;47.030;15.396;2024-02-04T10:36:24;98040.69;;;17.04;42.56
22580;BME280;11456;47.030;15.396;2024-02-04T10:38:51;98037.09;;;16.66;43.04
22580;BME280;11456;47.030;15.396;2024-02-04T10:41:18;98025.22;;;16.05;43.84
22580;BME280;11456;47.030;15.396;2024-02-04T10:43:44;98014.59;;;16.95;42.80
22580;BME280;11456;47.030;15.396;2024-02-04T10:46:19;98005.41;;;16.73;42.44
22580;BME280;11456;47.030;15.396;2024-02-04T10:48:55;98009.03;;;16.65;43.00
22580;BME280;11456;47.030;15.396;2024-02-04T10:51:25;97999.97;;;16.96;42.10
22580;BME280;11456;47.030;15.396;2024-02-04T10:53:55;98001.63;;;16.97;41.64
22580;BME280;11456;47.030;15.396;2024-02-04T10:56:37;98000.47;;;17.29;40.71
22580;BME280;11456;47.030;15.396;2024-02-04T10:59:05;97999.38;;;16.86;41.42
22580;BME280;11456;47.030;15.396;2024-02-04T11:01:33;97990.00;;;17.03;41.33
22580;BME280;11456;47.030;15.396;2024-02-04T11:04:00;97990.09;;;17.91;39.93
22580;BME280;11456;47.030;15.396;2024-02-04T11:06:28;97989.84;;;18.07;39.78
22580;BME280;11456;47.030;15.396;2024-02-04T11:08:55;97996.09;;;18.37;39.39
22580;BME280;11456;47.030;15.396;2024-02-04T11:11:24;97993.19;;;18.81;38.11
22580;BME280;11456;47.030;15.396;2024-02-04T11:13:56;97981.00;;;20.01;35.64
22580;BME280;11456;47.030;15.396;2024-02-04T11:22:11;97975.84;;;19.79;36.22
22580;BME280;11456;47.030;15.396;2024-02-04T11:24:59;97978.25;;;20.75;34.96
22580;BME280;11456;47.030;15.396;2024-02-04T11:27:29;97979.13;;;19.05;35.91
22580;BME280;11456;47.030;15.396;2024-02-04T11:29:57;97962.03;;;18.69;37.00
22580;BME280;11456;47.030;15.396;2024-02-04T11:32:24;97959.13;;;18.34;37.56
22580;BME280;11456;47.030;15.396;2024-02-04T11:34:53;97956.56;;;18.12;37.89
22580;BME280;11456;47.030;15.396;2024-02-04T11:37:23;97965.22;;;18.15;37.89
22580;BME280;11456;47.030;15.396;2024-02-04T11:39:53;97953.84;;;18.69;37.43
22580;BME280;11456;47.030;15.396;2024-02-04T11:42:25;97956.16;;;18.72;36.91
22580;BME280;11456;47.030;15.396;2024-02-04T11:45:10;97955.59;;;18.19;37.45
22580;BME280;11456;47.030;15.396;2024-02-04T11:47:38;97944.28;;;18.01;38.03
22580;BME280;11456;47.030;15.396;2024-02-04T11:50:06;97942.00;;;17.69;38.83
22580;BME280;11456;47.030;15.396;2024-02-04T11:52:33;97931.84;;;17.48;39.09
22580;BME280;11456;47.030;15.396;2024-02-04T11:55:00;97928.22;;;17.26;39.55
22580;BME280;11456;47.030;15.396;2024-02-04T11:57:28;97945.56;;;17.84;39.46
22580;BME280;11456;47.030;15.396;2024-02-04T11:59:55;97934.50;;;18.07;38.64
22580;BME280;11456;47.030;15.396;2024-02-04T12:02:22;97924.91;;;17.75;38.78
22580;BME280;11456;47.030;15.396;2024-02-04T12:04:49;97923.59;;;17.71;38.96
22580;BME280;11456;47.030;15.396;2024-02-04T12:07:17;97923.31;;;17.51;38.84
22580;BME280;11456;47.030;15.396;2024-02-04T12:09:44;97918.38;;;17.90;38.18
22580;BME280;11456;47.030;15.396;2024-02-04T12:12:11;97914.97;;;17.52;38.20
22580;BME280;11456;47.030;15.396;2024-02-04T12:14:39;97898.88;;;18.08;38.37
22580;BME280;11456;47.030;15.396;2024-02-04T12:17:10;97895.13;;;18.30;37.26
22580;BME280;11456;47.030;15.396;2024-02-04T12:19:37;97893.53;;;17.79;38.80
22580;BME280;11456;47.030;15.396;2024-02-04T12:22:09;97884.13;;;18.02;38.21
22580;BME280;11456;47.030;15.396;2024-02-04T12:24:38;97889.00;;;18.28;37.51
22580;BME280;11456;47.030;15.396;2024-02-04T12:27:05;97879.53;;;18.24;38.31
22580;BME280;11456;47.030;15.396;2024-02-04T12:29:33;97885.81;;;18.67;37.41
22580;BME280;11456;47.030;15.396;2024-02-04T12:32:01;97873.16;;;17.96;37.30
22580;BME280;11456;47.030;15.396;2024-02-04T12:34:28;97868.44;;;18.05;37.58
22580;BME280;11456;47.030;15.396;2024-02-04T12:36:59;97864.81;;;17.61;38.85
22580;BME280;11456;47.030;15.396;2024-02-04T12:39:27;97863.41;;;17.87;37.86
22580;BME280;11456;47.030;15.396;2024-02-04T12:41:54;97862.13;;;17.83;38.30
22580;BME280;11456;47.030;15.396;2024-02-04T12:44:21;97864.66;;;18.27;37.26
22580;BME280;11456;47.030;15.396;2024-02-04T12:46:51;97871.81;;;18.07;37.31
22580;BME280;11456;47.030;15.396;2024-02-04T12:49:20;97874.94;;;17.68;38.37
22580;BME280;11456;47.030;15.396;2024-02-04T12:51:50;97872.00;;;18.48;37.38
22580;BME280;11456;47.030;15.396;2024-02-04T12:54:19;97859.69;;;18.30;37.27
22580;BME280;11456;47.030;15.396;2024-02-04T12:56:51;97855.44;;;18.77;36.91
22580;BME280;11456;47.030;15.396;2024-02-04T12:59:32;97849.66;;;18.37;37.43
22580;BME280;11456;47.030;15.396;2024-02-04T13:02:01;97845.94;;;18.94;36.75